Lima, OH (45801)

9:26 AM EDT on September 02, 2015 (GMT -0400)
APRSWXNET | | Change Station
CLOSE
Current Station
Personal Weather Station
Location: Lima, OH
Elevation: 861 ft
Nearby Weather Stations

Elev 861 ft 40.73 °N, 84.12 °W | Updated 46 minutes ago

Clear
Clear
75 °F
Feels Like 74 °F
N
0
Wind Variable Wind from SW
Gusts 5.0 mph

Today
High -- | Low -- °F
--% Chance of Precip.
Yesterday
High -- | Low -- °F
Precip. -- in
7:03 AM 8:07 PM
Waning Gibbous, 80% visible
Pressure 30.10 in
Visibility 7.0 miles
Clouds Clear
Heat Index 74 °F
Dew Point 72 °F
Humidity 90%
Rainfall in
Snow Depth Not available.
UV 1 out of 12
Pollen 10.40 out of 12
Air Quality Not available.
Flu Activity Not available.
METAR KAOH 021253Z AUTO 21004KT 7SM CLR 22/19 A3012 RMK AO2 LTG DSNT S SLP192 T02220194
Pressure 30.10 in
Visibility 7.0 miles
Clouds Clear
Heat Index 74 °F
Dew Point 72 °F
Humidity 90%
Rainfall in
Snow Depth Not available.
UV 1 out of 12
Pollen 10.40 out of 12
Air Quality Not available.
Flu Activity Not available.
METAR KAOH 021253Z AUTO 21004KT 7SM CLR 22/19 A3012 RMK AO2 LTG DSNT S SLP192 T02220194

10-Day Weather Forecast

×

Almanac

Astronomy

Sep. 02, 2015 Rise Set
Actual Time
Civil Twilight
Nautical Twilight
Astronomical Twilight
Moon
Length of Visible Light
Length of Day
Tomorrow will be .
, % of the Moon is Illuminated

Today's Extremes

State Highs State Lows

Community

WunderPhotos

Upload Photos

1,851,749 photos uploaded!

WunderBlogs® & News

Nearby

Air Quality

  Air Quality AQ Index Pollutant
Not available.

Snow Depth

Station Depth Elevation

Earthquake Activity

City Distance Mag. Time & Date
Minimum magnitude displayed is 2.5.

Coastal Water Temperatures

Place Temperature

Stations

Nearby Weather Stations

Station Location Temp. Windchill Dew Point Humidity Wind Precip. Elev Updated Type